createdAt,value
2019-04-22T00:02:13.812Z,5.70
2019-04-22T00:05:01.101Z,5.40
2019-04-22T00:07:48.751Z,6.03
2019-04-22T00:10:29.466Z,6.00
2019-04-22T00:12:55.717Z,5.63
2019-04-22T00:15:28.023Z,5.93
2019-04-22T00:18:07.892Z,5.63
2019-04-22T00:20:48.819Z,6.10
2019-04-22T00:23:14.026Z,5.93
2019-04-22T00:25:55.877Z,6.30
2019-04-22T00:28:21.689Z,6.23
2019-04-22T00:31:04.556Z,5.70
2019-04-22T00:33:34.264Z,5.47
2019-04-22T00:36:11.288Z,5.30
2019-04-22T00:38:44.200Z,5.53
2019-04-22T00:41:22.918Z,4.87
2019-04-22T00:44:15.706Z,4.90
2019-04-22T00:46:50.969Z,5.50
2019-04-22T00:51:52.886Z,5.80
2019-04-22T00:54:22.564Z,5.63
2019-04-22T00:56:54.245Z,5.40
2019-04-22T00:59:50.829Z,5.67
2019-04-22T01:02:07.662Z,5.60
2019-04-22T01:04:40.964Z,5.87
2019-04-22T01:07:11.429Z,5.93
2019-04-22T01:09:46.471Z,5.63
2019-04-22T01:12:22.633Z,5.90
2019-04-22T01:14:49.607Z,5.23
2019-04-22T01:17:27.634Z,5.77
2019-04-22T01:20:10.400Z,5.80
2019-04-22T01:22:26.988Z,5.60
2019-04-22T01:25:03.583Z,5.57
2019-04-22T01:27:30.707Z,6.20
2019-04-22T01:30:05.778Z,6.07
2019-04-22T01:32:30.449Z,5.60
2019-04-22T01:35:11.133Z,5.90
2019-04-22T01:37:49.561Z,5.73
2019-04-22T01:40:31.522Z,6.10
2019-04-22T01:43:08.264Z,5.50
2019-04-22T01:45:41.412Z,5.60
2019-04-22T01:48:16.159Z,5.70
2019-04-22T01:50:48.418Z,5.90
2019-04-22T01:53:24.677Z,5.97
2019-04-22T01:55:55.531Z,5.53
2019-04-22T01:58:23.369Z,5.73
2019-04-22T02:00:59.712Z,5.73
2019-04-22T02:03:38.381Z,5.90
2019-04-22T02:06:05.611Z,5.90
2019-04-22T02:08:45.230Z,5.87
2019-04-22T02:11:23.287Z,5.77
2019-04-22T02:13:51.738Z,6.03
2019-04-22T02:16:21.262Z,5.67
2019-04-22T02:19:07.320Z,6.10
2019-04-22T02:21:28.658Z,5.70
2019-04-22T02:24:09.329Z,5.50
2019-04-22T02:29:17.042Z,5.70
2019-04-22T02:31:56.463Z,5.90
2019-04-22T02:34:22.236Z,5.43
2019-04-22T02:36:58.205Z,5.93
2019-04-22T02:39:24.375Z,5.93
2019-04-22T02:42:14.052Z,5.60
2019-04-22T02:44:39.138Z,6.00
2019-04-22T02:47:18.414Z,6.00
2019-04-22T02:49:50.900Z,5.43
2019-04-22T02:52:26.162Z,5.57
2019-04-22T02:55:02.867Z,5.60
2019-04-22T02:57:35.460Z,5.50
2019-04-22T03:00:07.402Z,6.03
2019-04-22T03:02:43.543Z,5.70
2019-04-22T03:05:09.017Z,5.70
2019-04-22T03:07:42.464Z,5.80
2019-04-22T03:10:22.697Z,5.50
2019-04-22T03:13:09.224Z,5.87
2019-04-22T03:15:20.030Z,5.77
2019-04-22T03:18:03.021Z,5.63
2019-04-22T03:20:33.939Z,5.47
2019-04-22T03:23:16.913Z,5.70
2019-04-22T03:28:23.694Z,5.80
2019-04-22T03:31:40.261Z,6.17
2019-04-22T03:34:39.117Z,5.90
2019-04-22T03:41:47.789Z,5.40
2019-04-22T03:44:18.905Z,5.77
2019-04-22T03:46:53.409Z,5.93
2019-04-22T03:49:28.997Z,5.93
2019-04-22T03:52:07.382Z,5.73
2019-04-22T04:02:13.993Z,5.60
2019-04-22T04:09:49.211Z,5.70
2019-04-22T04:12:37.745Z,6.00
2019-04-22T04:17:29.781Z,5.47
2019-04-22T04:30:26.482Z,5.70
2019-04-22T04:32:53.874Z,5.63
2019-04-22T04:35:30.486Z,5.67
2019-04-22T04:37:55.769Z,5.73
2019-04-22T04:43:13.727Z,5.10
2019-04-22T04:45:59.318Z,4.90
2019-04-22T04:50:47.385Z,4.37
2019-04-22T04:53:33.572Z,4.43
2019-04-22T04:55:53.191Z,4.37
2019-04-22T04:58:56.406Z,4.40
2019-04-22T05:01:03.016Z,4.27
2019-04-22T05:03:58.068Z,4.63
2019-04-22T05:06:12.462Z,4.30
2019-04-22T05:09:07.209Z,4.13
2019-04-22T05:11:24.912Z,4.43
2019-04-22T05:19:11.095Z,4.67
2019-04-22T05:21:38.509Z,4.07
2019-04-22T05:24:16.802Z,4.57
2019-04-22T05:27:03.387Z,4.40
2019-04-22T05:32:03.128Z,4.20
2019-04-22T05:34:34.609Z,4.27
2019-04-22T05:37:13.114Z,4.80
2019-04-22T05:39:43.684Z,4.83
2019-04-22T05:42:14.287Z,4.80
2019-04-22T05:44:52.832Z,4.60
2019-04-22T05:47:21.136Z,4.80
2019-04-22T05:50:00.057Z,4.43
2019-04-22T05:52:26.646Z,4.27
2019-04-22T05:55:08.163Z,4.90
2019-04-22T05:57:42.686Z,4.33
2019-04-22T06:00:17.887Z,4.30
2019-04-22T06:05:19.704Z,4.40
2019-04-22T06:07:59.184Z,4.17
2019-04-22T06:10:37.640Z,4.10
2019-04-22T06:13:00.849Z,4.13
2019-04-22T06:15:36.271Z,4.07
2019-04-22T06:18:17.606Z,3.63
2019-04-22T06:21:04.033Z,3.60
2019-04-22T06:26:20.691Z,3.83
2019-04-22T06:28:54.664Z,3.47
2019-04-22T06:31:11.071Z,3.63
2019-04-22T06:33:41.609Z,3.23
2019-04-22T06:36:15.728Z,4.20
2019-04-22T06:38:46.578Z,3.60
2019-04-22T06:41:33.290Z,3.83
2019-04-22T06:44:11.090Z,3.40
2019-04-22T06:46:43.389Z,3.83
2019-04-22T06:49:21.017Z,3.63
2019-04-22T06:51:46.828Z,3.60
2019-04-22T06:54:22.044Z,3.40
2019-04-22T06:56:57.735Z,2.87
2019-04-22T06:59:42.686Z,3.30
2019-04-22T07:02:04.789Z,3.37
2019-04-22T07:04:38.263Z,3.17
2019-04-22T07:09:48.551Z,3.37
2019-04-22T07:12:20.435Z,3.30
2019-04-22T07:14:54.188Z,3.30
2019-04-22T07:23:08.524Z,3.10
2019-04-22T07:25:42.490Z,3.00
2019-04-22T07:28:14.523Z,3.07
2019-04-22T07:30:52.851Z,2.80
2019-04-22T07:33:31.282Z,3.37
2019-04-22T07:36:30.654Z,3.10
2019-04-22T07:38:26.860Z,3.40
2019-04-22T07:40:59.240Z,3.20
2019-04-22T07:43:55.719Z,3.20
2019-04-22T07:46:13.713Z,3.17
2019-04-22T07:48:45.204Z,3.37
2019-04-22T07:51:24.501Z,3.47
2019-04-22T07:53:57.501Z,3.13
2019-04-22T07:56:24.629Z,3.20
2019-04-22T07:59:07.648Z,3.30
2019-04-22T08:01:30.602Z,3.17
2019-04-22T08:04:16.113Z,3.20
2019-04-22T08:06:46.060Z,3.40
2019-04-22T08:09:20.194Z,3.53
2019-04-22T08:12:02.981Z,3.30
2019-04-22T08:14:31.265Z,2.80
2019-04-22T08:17:00.709Z,3.10
2019-04-22T08:19:50.493Z,3.33
2019-04-22T08:22:03.027Z,3.20
2019-04-22T08:24:45.585Z,3.10
2019-04-22T08:27:11.418Z,3.27
2019-04-22T08:29:52.414Z,3.33
2019-04-22T08:32:21.692Z,3.40
2019-04-22T08:35:00.495Z,3.30
2019-04-22T08:40:10.657Z,3.30
2019-04-22T08:42:50.017Z,3.10
2019-04-22T08:45:18.233Z,3.40
2019-04-22T08:47:41.963Z,3.40
2019-04-22T08:50:33.958Z,3.10
2019-04-22T08:53:00.633Z,3.50
2019-04-22T08:55:31.408Z,3.50
2019-04-22T08:58:18.519Z,3.20
2019-04-22T09:00:39.696Z,3.37
2019-04-22T09:03:10.973Z,3.37
2019-04-22T09:08:19.161Z,3.40
2019-04-22T09:10:48.655Z,3.10
2019-04-22T09:13:30.032Z,3.53
2019-04-22T09:16:00.199Z,3.10
2019-04-22T09:18:34.514Z,3.07
2019-04-22T09:21:15.429Z,3.50
2019-04-22T09:23:44.488Z,3.50
2019-04-22T09:26:15.469Z,3.00
2019-04-22T09:28:50.938Z,3.00
2019-04-22T09:31:19.510Z,3.83
2019-04-22T09:33:53.428Z,3.37
2019-04-22T09:39:00.655Z,3.80
2019-04-22T09:41:42.999Z,3.50
2019-04-22T09:44:08.118Z,3.37
2019-04-22T09:46:47.950Z,3.07
2019-04-22T09:49:23.214Z,3.37
2019-04-22T09:51:56.396Z,3.27
2019-04-22T09:54:33.316Z,3.43
2019-04-22T09:56:55.348Z,3.00
2019-04-22T09:59:41.846Z,3.03
2019-04-22T10:02:19.928Z,3.10
2019-04-22T10:04:40.130Z,2.93
2019-04-22T10:07:20.003Z,3.10
2019-04-22T10:12:29.961Z,2.67
2019-04-22T10:14:59.903Z,3.07
2019-04-22T10:17:36.642Z,2.90
2019-04-22T10:20:15.075Z,3.00
2019-04-22T10:22:46.106Z,2.80
2019-04-22T10:25:19.648Z,2.60
2019-04-22T10:27:52.381Z,3.00
2019-04-22T10:30:33.867Z,3.10
2019-04-22T10:33:02.539Z,2.60
2019-04-22T10:35:17.177Z,2.80
2019-04-22T10:37:47.752Z,2.83
2019-04-22T10:40:29.304Z,2.63
2019-04-22T10:43:01.288Z,2.90
2019-04-22T10:45:34.462Z,2.50
2019-04-22T10:48:08.196Z,2.60
2019-04-22T10:50:46.622Z,2.50
2019-04-22T10:53:19.900Z,2.50
2019-04-22T10:55:51.919Z,2.23
2019-04-22T10:58:24.825Z,2.50
2019-04-22T11:00:58.207Z,2.80
2019-04-22T11:03:33.239Z,2.77
2019-04-22T11:06:05.628Z,2.30
2019-04-22T11:08:44.474Z,2.90
2019-04-22T11:11:26.518Z,2.70
2019-04-22T11:13:47.554Z,2.47
2019-04-22T11:16:19.521Z,2.37
2019-04-22T11:18:51.739Z,2.30
2019-04-22T11:21:23.687Z,2.20
2019-04-22T11:23:56.508Z,2.50
2019-04-22T11:26:31.768Z,2.37
2019-04-22T11:29:05.425Z,2.70
2019-04-22T11:31:38.794Z,2.57
2019-04-22T11:34:11.354Z,2.57
2019-04-22T11:36:43.179Z,2.50
2019-04-22T11:39:16.897Z,2.63
2019-04-22T11:41:49.980Z,2.87
2019-04-22T11:44:23.501Z,2.80
2019-04-22T11:46:57.110Z,2.33
2019-04-22T11:49:30.389Z,2.50
2019-04-22T11:52:04.837Z,2.60
2019-04-22T11:54:36.900Z,2.53
2019-04-22T11:57:10.662Z,2.40
2019-04-22T11:59:42.992Z,2.60
2019-04-22T12:02:18.050Z,2.40
2019-04-22T12:04:51.827Z,2.40
2019-04-22T12:07:24.304Z,2.43
2019-04-22T12:09:57.437Z,2.40
2019-04-22T12:12:30.032Z,2.30
2019-04-22T12:15:02.159Z,2.60
2019-04-22T12:17:38.088Z,2.23
2019-04-22T12:20:14.066Z,2.13
2019-04-22T12:22:45.330Z,2.30
2019-04-22T12:25:32.055Z,2.22
2019-04-22T12:27:56.922Z,2.57
2019-04-22T12:30:29.840Z,2.50
2019-04-22T12:33:02.342Z,2.63
2019-04-22T12:35:34.627Z,2.10
2019-04-22T12:38:08.870Z,2.60
2019-04-22T12:40:49.307Z,2.33
2019-04-22T12:43:18.087Z,2.60
2019-04-22T12:45:48.228Z,2.27
2019-04-22T12:48:21.351Z,2.70
2019-04-22T12:50:56.256Z,2.50
2019-04-22T12:53:28.026Z,2.33
2019-04-22T12:56:01.278Z,2.30
2019-04-22T12:58:35.667Z,2.27
2019-04-22T13:01:08.773Z,2.40
2019-04-22T13:03:42.492Z,2.20
2019-04-22T13:06:14.533Z,2.40
2019-04-22T13:08:47.697Z,2.30
2019-04-22T13:11:24.028Z,2.30
2019-04-22T13:13:54.846Z,2.40
2019-04-22T13:16:29.181Z,2.33
2019-04-22T13:19:05.611Z,2.30
2019-04-22T13:21:36.497Z,2.33
2019-04-22T13:24:09.097Z,2.27
2019-04-22T13:26:43.048Z,2.20
2019-04-22T13:29:16.854Z,2.47
2019-04-22T13:31:50.825Z,2.20
2019-04-22T13:34:30.444Z,2.40
2019-04-22T13:36:57.054Z,2.15
2019-04-22T13:39:29.339Z,2.33
2019-04-22T13:42:05.625Z,2.10
2019-04-22T13:44:35.571Z,2.47
2019-04-22T13:47:24.025Z,2.42
2019-04-22T13:50:17.830Z,2.30
2019-04-22T13:52:49.002Z,2.55
2019-04-22T13:55:15.835Z,2.77
2019-04-22T13:57:43.979Z,2.40
2019-04-22T14:00:00.324Z,2.40
2019-04-22T14:03:06.826Z,2.63
2019-04-22T14:05:40.416Z,2.87
2019-04-22T14:08:14.088Z,3.12
2019-04-22T14:10:45.870Z,2.37
2019-04-22T14:13:17.882Z,2.27
2019-04-22T14:15:50.873Z,2.70
2019-04-22T14:18:23.193Z,2.17
2019-04-22T14:20:56.613Z,2.30
2019-04-22T14:23:28.916Z,2.20
2019-04-22T14:26:01.326Z,2.65
2019-04-22T14:28:33.661Z,2.30
2019-04-22T14:31:06.668Z,1.90
2019-04-22T14:33:38.679Z,2.12
2019-04-22T14:36:11.637Z,2.10
2019-04-22T14:38:44.132Z,2.35
2019-04-22T14:41:35.775Z,2.20
2019-04-22T14:44:45.250Z,2.40
2019-04-22T14:46:49.350Z,2.23
2019-04-22T14:49:26.606Z,2.20
2019-04-22T14:51:59.150Z,2.70
2019-04-22T14:54:22.821Z,2.47
2019-04-22T14:56:42.586Z,2.30
2019-04-22T14:59:16.596Z,2.30
2019-04-22T15:01:51.609Z,2.00
2019-04-22T15:04:24.107Z,2.10
2019-04-22T15:06:57.031Z,2.10
2019-04-22T15:09:30.057Z,2.20
2019-04-22T15:12:11.108Z,2.27
2019-04-22T15:14:37.516Z,2.10
2019-04-22T15:17:22.920Z,2.10
2019-04-22T15:20:03.837Z,2.40
2019-04-22T15:22:38.756Z,2.30
2019-04-22T15:25:12.461Z,2.30
2019-04-22T15:27:45.909Z,2.07
2019-04-22T15:30:19.293Z,2.30
2019-04-22T15:32:53.680Z,2.20
2019-04-22T15:35:27.154Z,2.23
2019-04-22T15:37:59.325Z,2.40
2019-04-22T15:40:31.677Z,2.33
2019-04-22T15:43:04.717Z,2.60
2019-04-22T15:45:39.048Z,2.50
2019-04-22T15:48:11.775Z,2.70
2019-04-22T15:50:44.761Z,2.40
2019-04-22T15:53:18.014Z,2.30
2019-04-22T15:55:52.465Z,2.60
2019-04-22T15:58:25.741Z,2.50
2019-04-22T16:01:08.827Z,2.67
2019-04-22T16:03:32.438Z,2.60
2019-04-22T16:06:05.962Z,2.30
2019-04-22T16:08:40.673Z,2.37
2019-04-22T16:11:13.816Z,2.50
2019-04-22T16:13:46.553Z,2.57
2019-04-22T16:16:18.706Z,2.13
2019-04-22T16:18:50.727Z,2.60
2019-04-22T16:21:34.085Z,2.60
2019-04-22T16:24:31.891Z,2.60
2019-04-22T16:27:08.747Z,2.70
2019-04-22T16:29:41.273Z,2.57
2019-04-22T16:32:13.789Z,2.67
2019-04-22T16:34:47.730Z,2.53
2019-04-22T16:37:20.909Z,2.67
2019-04-22T16:39:52.824Z,2.47
2019-04-22T16:42:34.144Z,2.67
2019-04-22T16:45:09.624Z,2.77
2019-04-22T16:47:41.829Z,2.87
2019-04-22T16:50:14.287Z,2.70
2019-04-22T16:52:46.079Z,2.50
2019-04-22T16:55:18.951Z,2.77
2019-04-22T16:57:50.742Z,2.40
2019-04-22T17:00:24.909Z,2.73
2019-04-22T17:03:22.568Z,2.40
2019-04-22T17:06:14.319Z,2.93
2019-04-22T17:08:46.772Z,2.67
2019-04-22T17:11:25.569Z,2.90
2019-04-22T17:13:59.366Z,2.50
2019-04-22T17:16:34.715Z,2.60
2019-04-22T17:19:06.983Z,2.60
2019-04-22T17:21:39.664Z,2.50
2019-04-22T17:24:11.998Z,2.57
2019-04-22T17:26:44.208Z,2.47
2019-04-22T17:29:16.837Z,2.90
2019-04-22T17:31:56.623Z,2.80
2019-04-22T17:34:23.431Z,2.40
2019-04-22T17:36:55.455Z,2.40
2019-04-22T17:39:42.746Z,2.67
2019-04-22T17:42:22.626Z,2.70
2019-04-22T17:45:17.592Z,2.83
2019-04-22T17:48:12.105Z,2.90
2019-04-22T17:50:46.691Z,2.60
2019-04-22T17:53:27.674Z,3.00
2019-04-22T17:55:55.754Z,2.80
2019-04-22T17:58:25.877Z,2.83
2019-04-22T18:01:05.577Z,2.70
2019-04-22T18:03:24.456Z,2.77
2019-04-22T18:05:53.251Z,2.70
2019-04-22T18:08:44.323Z,3.27
2019-04-22T18:11:27.225Z,3.00
2019-04-22T18:13:51.961Z,2.87
2019-04-22T18:16:26.159Z,2.97
2019-04-22T18:19:00.819Z,3.40
2019-04-22T18:21:27.435Z,4.00
2019-04-22T18:23:54.124Z,3.90
2019-04-22T18:26:37.428Z,4.50
2019-04-22T18:29:11.549Z,4.90
2019-04-22T18:31:35.826Z,5.73
2019-04-22T18:34:10.258Z,5.57
2019-04-22T18:36:51.036Z,5.90
2019-04-22T18:39:38.891Z,5.57
2019-04-22T18:42:03.173Z,5.90
2019-04-22T18:44:40.269Z,5.30
2019-04-22T18:47:11.744Z,5.60
2019-04-22T18:49:55.432Z,5.40
2019-04-22T18:53:11.030Z,5.57
2019-04-22T18:55:44.158Z,5.00
2019-04-22T18:58:20.643Z,5.40
2019-04-22T19:00:39.942Z,5.03
2019-04-22T19:03:18.187Z,5.70
2019-04-22T19:06:13.187Z,5.40
2019-04-22T19:08:43.320Z,5.00
2019-04-22T19:11:26.962Z,4.73
2019-04-22T19:14:05.305Z,4.70
2019-04-22T19:16:30.911Z,4.43
2019-04-22T19:19:22.774Z,5.10
2019-04-22T19:21:36.602Z,4.00
2019-04-22T19:24:06.028Z,4.17
2019-04-22T19:26:50.027Z,3.63
2019-04-22T19:29:13.453Z,3.80
2019-04-22T19:31:45.494Z,2.87
2019-04-22T19:34:20.448Z,3.10
2019-04-22T19:37:00.544Z,3.10
2019-04-22T19:39:27.292Z,3.10
2019-04-22T19:42:14.958Z,3.17
2019-04-22T19:44:37.694Z,2.87
2019-04-22T19:47:25.158Z,2.67
2019-04-22T19:49:52.874Z,2.50
2019-04-22T19:52:25.013Z,2.50
2019-04-22T19:54:57.227Z,2.60
2019-04-22T19:57:27.632Z,2.33
2019-04-22T20:00:05.168Z,2.40
2019-04-22T20:03:05.421Z,2.30
2019-04-22T20:05:43.341Z,2.40
2019-04-22T20:08:14.284Z,2.50
2019-04-22T20:10:46.042Z,2.63
2019-04-22T20:13:28.885Z,2.50
2019-04-22T20:15:46.029Z,2.50
2019-04-22T20:18:35.648Z,2.60
2019-04-22T20:21:04.613Z,2.60
2019-04-22T20:23:29.505Z,2.67
2019-04-22T20:26:02.156Z,2.67
2019-04-22T20:28:49.272Z,2.67
2019-04-22T20:31:18.567Z,2.40
2019-04-22T20:34:01.377Z,2.63
2019-04-22T20:36:48.666Z,3.00
2019-04-22T20:39:01.308Z,2.83
2019-04-22T20:41:30.997Z,2.53
2019-04-22T20:44:12.514Z,2.77
2019-04-22T20:46:40.448Z,2.83
2019-04-22T20:49:19.501Z,2.70
2019-04-22T20:52:00.248Z,2.40
2019-04-22T20:54:23.178Z,3.10
2019-04-22T20:56:59.702Z,3.17
2019-04-22T20:59:33.029Z,3.07
2019-04-22T21:02:01.844Z,3.43
2019-04-22T21:04:33.543Z,3.20
2019-04-22T21:07:09.247Z,3.20
2019-04-22T21:09:50.844Z,3.17
2019-04-22T21:12:17.646Z,3.17
2019-04-22T21:15:03.575Z,3.30
2019-04-22T21:17:33.763Z,3.37
2019-04-22T21:20:10.062Z,3.53
2019-04-22T21:22:38.546Z,3.87
2019-04-22T21:25:07.522Z,3.57
2019-04-22T21:27:52.065Z,3.83
2019-04-22T21:30:26.497Z,3.60
2019-04-22T21:32:57.545Z,3.47
2019-04-22T21:35:47.474Z,3.57
2019-04-22T21:38:08.392Z,3.80
2019-04-22T21:40:40.381Z,3.90
2019-04-22T21:43:21.454Z,3.43
2019-04-22T21:45:53.068Z,3.67
2019-04-22T21:48:31.391Z,3.60
2019-04-22T21:51:01.289Z,3.80
2019-04-22T21:53:39.245Z,3.97
2019-04-22T21:56:27.284Z,3.83
2019-04-22T21:58:43.412Z,4.30
2019-04-22T22:01:42.579Z,4.50
2019-04-22T22:04:15.231Z,4.27
2019-04-22T22:06:37.999Z,4.50
2019-04-22T22:09:22.158Z,4.40
2019-04-22T22:11:50.789Z,3.93
2019-04-22T22:14:22.884Z,4.27
2019-04-22T22:16:53.424Z,4.40
2019-04-22T22:19:32.725Z,4.50
2019-04-22T22:22:25.444Z,4.93
2019-04-22T22:24:48.296Z,4.73
2019-04-22T22:27:14.438Z,4.53
2019-04-22T22:30:05.500Z,5.00
2019-04-22T22:32:27.563Z,4.93
2019-04-22T22:34:58.692Z,5.20
2019-04-22T22:37:20.481Z,4.53
2019-04-22T22:39:54.453Z,4.80
2019-04-22T22:42:25.479Z,4.97
2019-04-22T22:45:00.649Z,5.10
2019-04-22T22:47:41.011Z,5.17
2019-04-22T22:50:20.672Z,5.30
2019-04-22T22:53:03.072Z,5.30
2019-04-22T22:55:29.006Z,5.30
2019-04-22T22:58:06.233Z,5.37
2019-04-22T23:00:33.914Z,5.07
2019-04-22T23:05:55.376Z,5.47
2019-04-22T23:08:20.169Z,5.00
2019-04-22T23:11:00.338Z,5.27
2019-04-22T23:13:33.605Z,5.27
2019-04-22T23:15:55.520Z,5.27
2019-04-22T23:18:14.007Z,4.93
2019-04-22T23:20:49.623Z,5.40
2019-04-22T23:23:37.891Z,5.20
2019-04-22T23:26:29.742Z,5.50
2019-04-22T23:29:07.126Z,5.83
2019-04-22T23:31:41.979Z,5.23
2019-04-22T23:34:24.939Z,5.47
2019-04-22T23:37:04.338Z,5.57
2019-04-22T23:39:52.220Z,5.50
2019-04-22T23:42:21.908Z,5.20
2019-04-22T23:44:49.579Z,5.10
2019-04-22T23:47:29.863Z,5.50
2019-04-22T23:50:09.641Z,5.37
2019-04-22T23:52:48.120Z,5.37
2019-04-22T23:55:20.591Z,5.30
2019-04-22T23:57:56.775Z,5.20
